sensor_id;sensor_type;location;lat;lon;timestamp;P1;durP1;ratioP1;P2;durP2;ratioP2
7665;SDS011;3875;46.562;4.898;2023-04-23T00:01:34;4.77;;;4.37;;
7665;SDS011;3875;46.562;4.898;2023-04-23T00:04:04;4.40;;;4.00;;
7665;SDS011;3875;46.562;4.898;2023-04-23T00:06:32;5.63;;;4.63;;
7665;SDS011;3875;46.562;4.898;2023-04-23T00:08:59;5.03;;;4.63;;
7665;SDS011;3875;46.562;4.898;2023-04-23T00:11:25;7.13;;;4.63;;
7665;SDS011;3875;46.562;4.898;2023-04-23T00:13:51;5.40;;;4.90;;
7665;SDS011;3875;46.562;4.898;2023-04-23T00:16:18;5.23;;;4.73;;
7665;SDS011;3875;46.562;4.898;2023-04-23T00:18:45;6.30;;;5.70;;
7665;SDS011;3875;46.562;4.898;2023-04-23T00:21:11;5.80;;;5.20;;
7665;SDS011;3875;46.562;4.898;2023-04-23T00:23:37;5.70;;;5.20;;
7665;SDS011;3875;46.562;4.898;2023-04-23T00:26:03;5.47;;;4.80;;
7665;SDS011;3875;46.562;4.898;2023-04-23T00:28:29;7.03;;;4.80;;
7665;SDS011;3875;46.562;4.898;2023-04-23T00:30:55;5.03;;;4.57;;
7665;SDS011;3875;46.562;4.898;2023-04-23T00:33:21;6.97;;;4.17;;
7665;SDS011;3875;46.562;4.898;2023-04-23T00:35:47;5.70;;;4.07;;
7665;SDS011;3875;46.562;4.898;2023-04-23T00:38:13;4.60;;;4.20;;
7665;SDS011;3875;46.562;4.898;2023-04-23T00:40:38;5.33;;;4.50;;
7665;SDS011;3875;46.562;4.898;2023-04-23T00:43:04;4.20;;;3.63;;
7665;SDS011;3875;46.562;4.898;2023-04-23T00:45:31;6.27;;;4.57;;
7665;SDS011;3875;46.562;4.898;2023-04-23T00:47:57;8.17;;;4.37;;
7665;SDS011;3875;46.562;4.898;2023-04-23T00:50:23;4.33;;;3.93;;
7665;SDS011;3875;46.562;4.898;2023-04-23T00:52:49;5.47;;;4.50;;
7665;SDS011;3875;46.562;4.898;2023-04-23T00:55:14;5.83;;;4.70;;
7665;SDS011;3875;46.562;4.898;2023-04-23T00:57:41;4.97;;;4.33;;
7665;SDS011;3875;46.562;4.898;2023-04-23T01:00:07;5.30;;;4.80;;
7665;SDS011;3875;46.562;4.898;2023-04-23T01:02:33;5.27;;;4.77;;
7665;SDS011;3875;46.562;4.898;2023-04-23T01:05:01;7.53;;;5.07;;
7665;SDS011;3875;46.562;4.898;2023-04-23T01:07:29;7.23;;;5.03;;
7665;SDS011;3875;46.562;4.898;2023-04-23T01:09:58;5.73;;;5.10;;
7665;SDS011;3875;46.562;4.898;2023-04-23T01:12:24;9.83;;;5.60;;
7665;SDS011;3875;46.562;4.898;2023-04-23T01:14:51;7.17;;;5.20;;
7665;SDS011;3875;46.562;4.898;2023-04-23T01:17:16;6.10;;;5.23;;
7665;SDS011;3875;46.562;4.898;2023-04-23T01:19:42;6.63;;;5.30;;
7665;SDS011;3875;46.562;4.898;2023-04-23T01:22:09;7.10;;;5.47;;
7665;SDS011;3875;46.562;4.898;2023-04-23T01:24:36;6.30;;;5.30;;
7665;SDS011;3875;46.562;4.898;2023-04-23T01:27:02;6.63;;;5.97;;
7665;SDS011;3875;46.562;4.898;2023-04-23T01:29:28;6.83;;;5.93;;
7665;SDS011;3875;46.562;4.898;2023-04-23T01:31:55;7.67;;;5.97;;
7665;SDS011;3875;46.562;4.898;2023-04-23T01:34:21;7.50;;;6.33;;
7665;SDS011;3875;46.562;4.898;2023-04-23T01:36:47;8.03;;;6.00;;
7665;SDS011;3875;46.562;4.898;2023-04-23T01:39:13;6.80;;;6.03;;
7665;SDS011;3875;46.562;4.898;2023-04-23T01:41:39;9.33;;;6.60;;
7665;SDS011;3875;46.562;4.898;2023-04-23T01:44:05;7.53;;;6.03;;
7665;SDS011;3875;46.562;4.898;2023-04-23T01:46:31;7.63;;;5.67;;
7665;SDS011;3875;46.562;4.898;2023-04-23T01:48:57;6.23;;;5.57;;
7665;SDS011;3875;46.562;4.898;2023-04-23T01:51:23;7.90;;;5.33;;
7665;SDS011;3875;46.562;4.898;2023-04-23T01:53:50;6.37;;;5.40;;
7665;SDS011;3875;46.562;4.898;2023-04-23T01:56:15;6.20;;;5.60;;
7665;SDS011;3875;46.562;4.898;2023-04-23T01:58:45;6.30;;;5.70;;
7665;SDS011;3875;46.562;4.898;2023-04-23T02:01:11;7.17;;;5.17;;
7665;SDS011;3875;46.562;4.898;2023-04-23T02:03:37;7.13;;;5.63;;
7665;SDS011;3875;46.562;4.898;2023-04-23T02:06:02;6.40;;;5.60;;
7665;SDS011;3875;46.562;4.898;2023-04-23T02:08:29;7.03;;;6.33;;
7665;SDS011;3875;46.562;4.898;2023-04-23T02:10:55;7.87;;;6.73;;
7665;SDS011;3875;46.562;4.898;2023-04-23T02:13:21;8.93;;;6.40;;
7665;SDS011;3875;46.562;4.898;2023-04-23T02:15:46;8.23;;;6.50;;
7665;SDS011;3875;46.562;4.898;2023-04-23T02:18:12;9.83;;;7.03;;
7665;SDS011;3875;46.562;4.898;2023-04-23T02:20:38;8.27;;;6.80;;
7665;SDS011;3875;46.562;4.898;2023-04-23T02:23:08;8.80;;;7.33;;
7665;SDS011;3875;46.562;4.898;2023-04-23T02:25:35;8.83;;;7.10;;
7665;SDS011;3875;46.562;4.898;2023-04-23T02:28:03;8.30;;;7.00;;
7665;SDS011;3875;46.562;4.898;2023-04-23T02:30:32;9.73;;;6.73;;
7665;SDS011;3875;46.562;4.898;2023-04-23T02:32:59;9.67;;;6.17;;
7665;SDS011;3875;46.562;4.898;2023-04-23T02:35:25;9.77;;;7.03;;
7665;SDS011;3875;46.562;4.898;2023-04-23T02:37:51;7.57;;;6.10;;
7665;SDS011;3875;46.562;4.898;2023-04-23T02:40:18;6.70;;;5.23;;
7665;SDS011;3875;46.562;4.898;2023-04-23T02:43:40;6.73;;;5.37;;
7665;SDS011;3875;46.562;4.898;2023-04-23T02:46:06;6.40;;;4.80;;
7665;SDS011;3875;46.562;4.898;2023-04-23T02:48:34;7.67;;;5.07;;
7665;SDS011;3875;46.562;4.898;2023-04-23T02:51:03;8.23;;;5.13;;
7665;SDS011;3875;46.562;4.898;2023-04-23T02:53:30;6.60;;;4.83;;
7665;SDS011;3875;46.562;4.898;2023-04-23T02:55:56;6.77;;;5.63;;
7665;SDS011;3875;46.562;4.898;2023-04-23T02:58:21;6.93;;;5.30;;
7665;SDS011;3875;46.562;4.898;2023-04-23T03:00:47;9.33;;;6.50;;
7665;SDS011;3875;46.562;4.898;2023-04-23T03:03:13;7.47;;;6.10;;
7665;SDS011;3875;46.562;4.898;2023-04-23T03:05:39;10.93;;;6.57;;
7665;SDS011;3875;46.562;4.898;2023-04-23T03:08:04;81.40;;;9.57;;
7665;SDS011;3875;46.562;4.898;2023-04-23T03:10:30;15.53;;;6.90;;
7665;SDS011;3875;46.562;4.898;2023-04-23T03:12:55;10.30;;;6.10;;
7665;SDS011;3875;46.562;4.898;2023-04-23T03:15:21;8.07;;;5.60;;
7665;SDS011;3875;46.562;4.898;2023-04-23T03:17:47;9.10;;;7.27;;
7665;SDS011;3875;46.562;4.898;2023-04-23T03:20:12;7.80;;;6.70;;
7665;SDS011;3875;46.562;4.898;2023-04-23T03:22:38;8.03;;;6.50;;
7665;SDS011;3875;46.562;4.898;2023-04-23T03:25:04;8.77;;;5.93;;
7665;SDS011;3875;46.562;4.898;2023-04-23T03:27:30;6.13;;;5.53;;
7665;SDS011;3875;46.562;4.898;2023-04-23T03:29:56;9.67;;;6.70;;
7665;SDS011;3875;46.562;4.898;2023-04-23T03:32:23;7.60;;;6.77;;
7665;SDS011;3875;46.562;4.898;2023-04-23T03:34:48;11.27;;;6.80;;
7665;SDS011;3875;46.562;4.898;2023-04-23T03:37:14;7.23;;;6.20;;
7665;SDS011;3875;46.562;4.898;2023-04-23T03:39:40;7.80;;;6.10;;
7665;SDS011;3875;46.562;4.898;2023-04-23T03:42:06;8.00;;;5.67;;
7665;SDS011;3875;46.562;4.898;2023-04-23T03:44:31;9.07;;;6.37;;
7665;SDS011;3875;46.562;4.898;2023-04-23T03:46:57;7.07;;;5.93;;
7665;SDS011;3875;46.562;4.898;2023-04-23T03:49:24;8.07;;;6.03;;
7665;SDS011;3875;46.562;4.898;2023-04-23T03:51:50;6.93;;;5.53;;
7665;SDS011;3875;46.562;4.898;2023-04-23T03:54:16;8.20;;;5.53;;
7665;SDS011;3875;46.562;4.898;2023-04-23T03:56:42;6.40;;;5.30;;
7665;SDS011;3875;46.562;4.898;2023-04-23T03:59:08;6.23;;;5.53;;
7665;SDS011;3875;46.562;4.898;2023-04-23T04:01:33;7.00;;;4.97;;
7665;SDS011;3875;46.562;4.898;2023-04-23T04:04:00;13.53;;;5.93;;
7665;SDS011;3875;46.562;4.898;2023-04-23T04:06:26;6.97;;;5.63;;
7665;SDS011;3875;46.562;4.898;2023-04-23T04:08:51;8.03;;;5.80;;
7665;SDS011;3875;46.562;4.898;2023-04-23T04:11:17;7.23;;;6.30;;
7665;SDS011;3875;46.562;4.898;2023-04-23T04:13:42;7.50;;;6.10;;
7665;SDS011;3875;46.562;4.898;2023-04-23T04:16:08;6.50;;;5.77;;
7665;SDS011;3875;46.562;4.898;2023-04-23T04:18:34;8.00;;;5.27;;
7665;SDS011;3875;46.562;4.898;2023-04-23T04:21:00;8.60;;;5.80;;
7665;SDS011;3875;46.562;4.898;2023-04-23T04:23:26;7.50;;;5.97;;
7665;SDS011;3875;46.562;4.898;2023-04-23T04:25:52;6.83;;;5.20;;
7665;SDS011;3875;46.562;4.898;2023-04-23T04:28:20;12.63;;;5.23;;
7665;SDS011;3875;46.562;4.898;2023-04-23T04:30:46;11.30;;;4.73;;
7665;SDS011;3875;46.562;4.898;2023-04-23T04:33:14;55.57;;;12.33;;
7665;SDS011;3875;46.562;4.898;2023-04-23T04:35:39;10.70;;;7.97;;
7665;SDS011;3875;46.562;4.898;2023-04-23T04:38:06;10.63;;;7.47;;
7665;SDS011;3875;46.562;4.898;2023-04-23T04:40:32;11.13;;;7.33;;
7665;SDS011;3875;46.562;4.898;2023-04-23T04:42:58;8.30;;;6.57;;
7665;SDS011;3875;46.562;4.898;2023-04-23T04:45:24;11.73;;;6.57;;
7665;SDS011;3875;46.562;4.898;2023-04-23T04:47:50;8.27;;;6.43;;
7665;SDS011;3875;46.562;4.898;2023-04-23T04:50:16;7.93;;;5.97;;
7665;SDS011;3875;46.562;4.898;2023-04-23T04:52:42;9.20;;;6.27;;
7665;SDS011;3875;46.562;4.898;2023-04-23T04:55:07;9.93;;;7.67;;
7665;SDS011;3875;46.562;4.898;2023-04-23T04:57:33;11.00;;;8.30;;
7665;SDS011;3875;46.562;4.898;2023-04-23T05:00:01;7.90;;;7.10;;
7665;SDS011;3875;46.562;4.898;2023-04-23T05:02:42;7.23;;;6.53;;
7665;SDS011;3875;46.562;4.898;2023-04-23T05:05:08;7.37;;;6.57;;
7665;SDS011;3875;46.562;4.898;2023-04-23T05:07:34;7.67;;;6.80;;
7665;SDS011;3875;46.562;4.898;2023-04-23T05:10:00;8.50;;;7.57;;
7665;SDS011;3875;46.562;4.898;2023-04-23T05:12:26;13.43;;;7.80;;
7665;SDS011;3875;46.562;4.898;2023-04-23T05:14:51;10.60;;;8.50;;
7665;SDS011;3875;46.562;4.898;2023-04-23T05:17:17;10.60;;;8.23;;
7665;SDS011;3875;46.562;4.898;2023-04-23T05:19:43;10.63;;;8.70;;
7665;SDS011;3875;46.562;4.898;2023-04-23T05:22:08;12.13;;;8.13;;
7665;SDS011;3875;46.562;4.898;2023-04-23T05:24:35;13.13;;;9.17;;
7665;SDS011;3875;46.562;4.898;2023-04-23T05:27:01;11.37;;;9.03;;
7665;SDS011;3875;46.562;4.898;2023-04-23T05:29:26;10.33;;;8.73;;
7665;SDS011;3875;46.562;4.898;2023-04-23T05:31:52;14.10;;;9.50;;
7665;SDS011;3875;46.562;4.898;2023-04-23T05:34:18;25.00;;;9.10;;
7665;SDS011;3875;46.562;4.898;2023-04-23T05:36:43;13.97;;;9.00;;
7665;SDS011;3875;46.562;4.898;2023-04-23T05:39:09;12.47;;;8.30;;
7665;SDS011;3875;46.562;4.898;2023-04-23T05:41:35;28.63;;;9.53;;
7665;SDS011;3875;46.562;4.898;2023-04-23T05:44:00;38.87;;;9.80;;
7665;SDS011;3875;46.562;4.898;2023-04-23T05:46:26;54.97;;;11.60;;
7665;SDS011;3875;46.562;4.898;2023-04-23T05:48:52;52.27;;;10.90;;
7665;SDS011;3875;46.562;4.898;2023-04-23T05:51:17;19.23;;;8.87;;
7665;SDS011;3875;46.562;4.898;2023-04-23T05:53:43;15.80;;;9.17;;
7665;SDS011;3875;46.562;4.898;2023-04-23T05:56:09;14.57;;;9.23;;
7665;SDS011;3875;46.562;4.898;2023-04-23T05:58:34;10.40;;;8.77;;
7665;SDS011;3875;46.562;4.898;2023-04-23T06:01:00;14.00;;;10.07;;
7665;SDS011;3875;46.562;4.898;2023-04-23T06:03:26;17.03;;;10.40;;
7665;SDS011;3875;46.562;4.898;2023-04-23T06:05:52;17.43;;;11.60;;
7665;SDS011;3875;46.562;4.898;2023-04-23T06:08:18;16.33;;;10.50;;
7665;SDS011;3875;46.562;4.898;2023-04-23T06:10:44;18.30;;;10.83;;
7665;SDS011;3875;46.562;4.898;2023-04-23T06:13:10;16.33;;;10.23;;
7665;SDS011;3875;46.562;4.898;2023-04-23T06:15:36;17.43;;;10.20;;
7665;SDS011;3875;46.562;4.898;2023-04-23T06:18:02;24.47;;;10.43;;
7665;SDS011;3875;46.562;4.898;2023-04-23T06:20:28;18.13;;;10.23;;
7665;SDS011;3875;46.562;4.898;2023-04-23T06:22:54;14.77;;;9.50;;
7665;SDS011;3875;46.562;4.898;2023-04-23T06:25:20;14.50;;;9.13;;
7665;SDS011;3875;46.562;4.898;2023-04-23T06:27:46;16.00;;;9.63;;
7665;SDS011;3875;46.562;4.898;2023-04-23T06:30:11;13.63;;;8.97;;
7665;SDS011;3875;46.562;4.898;2023-04-23T06:32:37;16.27;;;8.53;;
7665;SDS011;3875;46.562;4.898;2023-04-23T06:35:03;16.37;;;10.17;;
7665;SDS011;3875;46.562;4.898;2023-04-23T06:37:29;15.23;;;10.57;;
7665;SDS011;3875;46.562;4.898;2023-04-23T06:39:55;15.27;;;9.50;;
7665;SDS011;3875;46.562;4.898;2023-04-23T06:42:22;15.37;;;10.13;;
7665;SDS011;3875;46.562;4.898;2023-04-23T06:44:48;18.17;;;10.60;;
7665;SDS011;3875;46.562;4.898;2023-04-23T06:47:15;16.17;;;11.20;;
7665;SDS011;3875;46.562;4.898;2023-04-23T06:49:41;15.73;;;10.57;;
7665;SDS011;3875;46.562;4.898;2023-04-23T06:52:07;17.47;;;11.17;;
7665;SDS011;3875;46.562;4.898;2023-04-23T06:54:32;14.47;;;10.67;;
7665;SDS011;3875;46.562;4.898;2023-04-23T06:56:58;15.97;;;10.40;;
7665;SDS011;3875;46.562;4.898;2023-04-23T06:59:23;16.50;;;11.40;;
7665;SDS011;3875;46.562;4.898;2023-04-23T07:01:49;20.00;;;11.73;;
7665;SDS011;3875;46.562;4.898;2023-04-23T07:04:15;16.23;;;11.13;;
7665;SDS011;3875;46.562;4.898;2023-04-23T07:06:41;16.33;;;11.87;;
7665;SDS011;3875;46.562;4.898;2023-04-23T07:09:06;17.43;;;12.33;;
7665;SDS011;3875;46.562;4.898;2023-04-23T07:11:32;20.57;;;12.47;;
7665;SDS011;3875;46.562;4.898;2023-04-23T07:14:00;18.20;;;13.13;;
7665;SDS011;3875;46.562;4.898;2023-04-23T07:16:26;17.10;;;11.47;;
7665;SDS011;3875;46.562;4.898;2023-04-23T07:18:56;16.97;;;11.77;;
7665;SDS011;3875;46.562;4.898;2023-04-23T07:21:21;16.70;;;12.00;;
7665;SDS011;3875;46.562;4.898;2023-04-23T07:23:47;15.00;;;11.00;;
7665;SDS011;3875;46.562;4.898;2023-04-23T07:26:12;17.33;;;11.10;;
7665;SDS011;3875;46.562;4.898;2023-04-23T07:28:38;18.93;;;12.13;;
7665;SDS011;3875;46.562;4.898;2023-04-23T07:31:04;17.10;;;11.03;;
7665;SDS011;3875;46.562;4.898;2023-04-23T07:33:31;15.67;;;12.17;;
7665;SDS011;3875;46.562;4.898;2023-04-23T07:35:57;17.53;;;11.33;;
7665;SDS011;3875;46.562;4.898;2023-04-23T07:38:23;13.20;;;9.97;;
7665;SDS011;3875;46.562;4.898;2023-04-23T07:40:48;11.87;;;9.60;;
7665;SDS011;3875;46.562;4.898;2023-04-23T07:43:14;14.53;;;10.30;;
7665;SDS011;3875;46.562;4.898;2023-04-23T07:45:40;11.83;;;10.47;;
7665;SDS011;3875;46.562;4.898;2023-04-23T07:48:06;13.20;;;11.53;;
7665;SDS011;3875;46.562;4.898;2023-04-23T07:50:32;14.07;;;10.97;;
7665;SDS011;3875;46.562;4.898;2023-04-23T07:52:57;12.37;;;9.93;;
7665;SDS011;3875;46.562;4.898;2023-04-23T07:55:23;16.50;;;11.87;;
7665;SDS011;3875;46.562;4.898;2023-04-23T07:57:49;13.30;;;11.20;;
7665;SDS011;3875;46.562;4.898;2023-04-23T08:00:14;14.43;;;10.50;;
7665;SDS011;3875;46.562;4.898;2023-04-23T08:02:40;13.07;;;10.33;;
7665;SDS011;3875;46.562;4.898;2023-04-23T08:05:06;11.03;;;9.10;;
7665;SDS011;3875;46.562;4.898;2023-04-23T08:07:32;11.17;;;9.57;;
7665;SDS011;3875;46.562;4.898;2023-04-23T08:09:58;12.53;;;10.40;;
7665;SDS011;3875;46.562;4.898;2023-04-23T08:12:28;11.47;;;9.47;;
7665;SDS011;3875;46.562;4.898;2023-04-23T08:14:54;12.40;;;10.30;;
7665;SDS011;3875;46.562;4.898;2023-04-23T08:17:20;11.17;;;9.77;;
7665;SDS011;3875;46.562;4.898;2023-04-23T08:19:46;13.23;;;10.80;;
7665;SDS011;3875;46.562;4.898;2023-04-23T08:22:11;12.53;;;10.47;;
7665;SDS011;3875;46.562;4.898;2023-04-23T08:24:37;12.83;;;10.47;;
7665;SDS011;3875;46.562;4.898;2023-04-23T08:27:03;14.10;;;11.20;;
7665;SDS011;3875;46.562;4.898;2023-04-23T08:29:28;15.60;;;13.90;;
7665;SDS011;3875;46.562;4.898;2023-04-23T08:31:54;12.33;;;11.03;;
7665;SDS011;3875;46.562;4.898;2023-04-23T08:34:20;13.63;;;11.83;;
7665;SDS011;3875;46.562;4.898;2023-04-23T08:36:45;13.27;;;11.87;;
7665;SDS011;3875;46.562;4.898;2023-04-23T08:39:12;13.90;;;12.07;;
7665;SDS011;3875;46.562;4.898;2023-04-23T08:41:39;12.03;;;10.73;;
7665;SDS011;3875;46.562;4.898;2023-04-23T08:46:43;14.10;;;12.60;;
7665;SDS011;3875;46.562;4.898;2023-04-23T08:49:13;13.50;;;12.10;;
7665;SDS011;3875;46.562;4.898;2023-04-23T08:51:51;14.63;;;11.40;;
7665;SDS011;3875;46.562;4.898;2023-04-23T08:54:20;11.50;;;10.30;;
7665;SDS011;3875;46.562;4.898;2023-04-23T08:56:50;16.03;;;10.83;;
7665;SDS011;3875;46.562;4.898;2023-04-23T08:59:21;12.60;;;11.30;;
7665;SDS011;3875;46.562;4.898;2023-04-23T09:01:47;12.60;;;10.77;;
7665;SDS011;3875;46.562;4.898;2023-04-23T09:04:13;13.10;;;11.70;;
7665;SDS011;3875;46.562;4.898;2023-04-23T09:06:44;13.27;;;11.87;;
7665;SDS011;3875;46.562;4.898;2023-04-23T09:09:10;12.53;;;10.97;;
7665;SDS011;3875;46.562;4.898;2023-04-23T09:11:39;12.77;;;11.47;;
7665;SDS011;3875;46.562;4.898;2023-04-23T09:14:06;12.77;;;11.00;;
7665;SDS011;3875;46.562;4.898;2023-04-23T09:16:32;14.30;;;11.33;;
7665;SDS011;3875;46.562;4.898;2023-04-23T09:18:58;11.97;;;10.77;;
7665;SDS011;3875;46.562;4.898;2023-04-23T09:21:24;13.57;;;11.80;;
7665;SDS011;3875;46.562;4.898;2023-04-23T09:23:50;12.73;;;11.40;;
7665;SDS011;3875;46.562;4.898;2023-04-23T09:26:20;14.47;;;12.27;;
7665;SDS011;3875;46.562;4.898;2023-04-23T09:28:49;12.83;;;11.53;;
7665;SDS011;3875;46.562;4.898;2023-04-23T09:31:19;12.10;;;10.83;;
7665;SDS011;3875;46.562;4.898;2023-04-23T09:33:50;11.43;;;9.57;;
7665;SDS011;3875;46.562;4.898;2023-04-23T09:36:20;12.33;;;10.03;;
7665;SDS011;3875;46.562;4.898;2023-04-23T09:38:48;11.47;;;9.87;;
7665;SDS011;3875;46.562;4.898;2023-04-23T09:41:21;12.63;;;10.80;;
7665;SDS011;3875;46.562;4.898;2023-04-23T09:43:53;13.67;;;10.47;;
7665;SDS011;3875;46.562;4.898;2023-04-23T09:46:33;13.80;;;10.07;;
7665;SDS011;3875;46.562;4.898;2023-04-23T09:49:03;13.00;;;10.93;;
7665;SDS011;3875;46.562;4.898;2023-04-23T09:51:36;10.43;;;9.27;;
7665;SDS011;3875;46.562;4.898;2023-04-23T09:54:07;11.40;;;9.43;;
7665;SDS011;3875;46.562;4.898;2023-04-23T09:56:36;12.50;;;10.57;;
7665;SDS011;3875;46.562;4.898;2023-04-23T09:59:07;12.17;;;8.83;;
7665;SDS011;3875;46.562;4.898;2023-04-23T10:01:46;11.67;;;8.40;;
7665;SDS011;3875;46.562;4.898;2023-04-23T10:04:16;12.07;;;9.65;;
7665;SDS011;3875;46.562;4.898;2023-04-23T10:06:53;11.00;;;8.60;;
7665;SDS011;3875;46.562;4.898;2023-04-23T10:09:23;10.63;;;8.93;;
7665;SDS011;3875;46.562;4.898;2023-04-23T10:11:53;30.43;;;20.33;;
7665;SDS011;3875;46.562;4.898;2023-04-23T10:14:21;10.23;;;7.67;;
7665;SDS011;3875;46.562;4.898;2023-04-23T10:16:50;10.93;;;8.17;;
7665;SDS011;3875;46.562;4.898;2023-04-23T10:19:21;13.77;;;8.10;;
7665;SDS011;3875;46.562;4.898;2023-04-23T10:21:52;12.67;;;8.23;;
7665;SDS011;3875;46.562;4.898;2023-04-23T10:24:21;9.67;;;8.33;;
7665;SDS011;3875;46.562;4.898;2023-04-23T10:26:58;11.87;;;8.20;;
7665;SDS011;3875;46.562;4.898;2023-04-23T10:29:30;9.43;;;7.57;;
7665;SDS011;3875;46.562;4.898;2023-04-23T10:32:00;9.00;;;6.90;;
7665;SDS011;3875;46.562;4.898;2023-04-23T10:34:28;26.30;;;15.23;;
7665;SDS011;3875;46.562;4.898;2023-04-23T10:36:55;8.30;;;6.00;;
7665;SDS011;3875;46.562;4.898;2023-04-23T10:39:32;9.00;;;6.57;;
7665;SDS011;3875;46.562;4.898;2023-04-23T10:41:59;8.90;;;6.57;;
7665;SDS011;3875;46.562;4.898;2023-04-23T10:44:33;8.47;;;6.67;;
7665;SDS011;3875;46.562;4.898;2023-04-23T10:47:01;10.63;;;7.33;;
7665;SDS011;3875;46.562;4.898;2023-04-23T10:49:31;9.93;;;7.63;;
7665;SDS011;3875;46.562;4.898;2023-04-23T10:51:58;13.23;;;8.00;;
7665;SDS011;3875;46.562;4.898;2023-04-23T10:54:31;11.87;;;8.30;;
7665;SDS011;3875;46.562;4.898;2023-04-23T10:56:59;14.77;;;10.17;;
7665;SDS011;3875;46.562;4.898;2023-04-23T10:59:27;11.63;;;8.20;;
7665;SDS011;3875;46.562;4.898;2023-04-23T11:01:54;13.10;;;9.30;;
7665;SDS011;3875;46.562;4.898;2023-04-23T11:04:26;10.90;;;8.80;;
7665;SDS011;3875;46.562;4.898;2023-04-23T11:07:13;16.00;;;9.10;;
7665;SDS011;3875;46.562;4.898;2023-04-23T11:12:05;11.00;;;8.47;;
7665;SDS011;3875;46.562;4.898;2023-04-23T11:14:48;11.53;;;8.73;;
7665;SDS011;3875;46.562;4.898;2023-04-23T11:17:21;13.63;;;9.20;;
7665;SDS011;3875;46.562;4.898;2023-04-23T11:20:10;12.00;;;9.03;;
7665;SDS011;3875;46.562;4.898;2023-04-23T11:22:43;13.23;;;9.30;;
7665;SDS011;3875;46.562;4.898;2023-04-23T11:25:13;13.60;;;9.60;;
7665;SDS011;3875;46.562;4.898;2023-04-23T11:27:43;14.50;;;10.47;;
7665;SDS011;3875;46.562;4.898;2023-04-23T11:30:12;17.87;;;10.20;;
7665;SDS011;3875;46.562;4.898;2023-04-23T11:32:38;13.47;;;9.73;;
7665;SDS011;3875;46.562;4.898;2023-04-23T11:35:05;14.27;;;9.83;;
7665;SDS011;3875;46.562;4.898;2023-04-23T11:37:37;13.37;;;9.70;;
7665;SDS011;3875;46.562;4.898;2023-04-23T11:40:05;16.63;;;10.00;;
7665;SDS011;3875;46.562;4.898;2023-04-23T11:42:41;14.93;;;10.37;;
7665;SDS011;3875;46.562;4.898;2023-04-23T11:45:23;14.90;;;10.67;;
7665;SDS011;3875;46.562;4.898;2023-04-23T11:47:51;13.77;;;10.07;;
7665;SDS011;3875;46.562;4.898;2023-04-23T11:50:23;15.40;;;11.07;;
7665;SDS011;3875;46.562;4.898;2023-04-23T11:52:52;14.07;;;9.37;;
7665;SDS011;3875;46.562;4.898;2023-04-23T11:55:18;19.70;;;10.67;;
7665;SDS011;3875;46.562;4.898;2023-04-23T11:57:45;19.40;;;10.43;;
7665;SDS011;3875;46.562;4.898;2023-04-23T12:00:14;12.40;;;9.73;;
7665;SDS011;3875;46.562;4.898;2023-04-23T12:02:54;16.27;;;10.30;;
7665;SDS011;3875;46.562;4.898;2023-04-23T12:05:34;13.73;;;10.10;;
7665;SDS011;3875;46.562;4.898;2023-04-23T12:08:19;15.93;;;10.27;;
7665;SDS011;3875;46.562;4.898;2023-04-23T12:10:50;15.07;;;11.15;;
7665;SDS011;3875;46.562;4.898;2023-04-23T12:13:38;12.93;;;9.90;;
7665;SDS011;3875;46.562;4.898;2023-04-23T12:16:04;14.20;;;9.17;;
7665;SDS011;3875;46.562;4.898;2023-04-23T12:18:31;12.17;;;9.53;;
7665;SDS011;3875;46.562;4.898;2023-04-23T12:21:06;13.10;;;9.20;;
7665;SDS011;3875;46.562;4.898;2023-04-23T12:23:39;13.10;;;8.13;;
7665;SDS011;3875;46.562;4.898;2023-04-23T12:26:09;12.57;;;9.07;;
7665;SDS011;3875;46.562;4.898;2023-04-23T12:28:46;12.83;;;8.13;;
7665;SDS011;3875;46.562;4.898;2023-04-23T12:31:32;13.30;;;7.70;;
7665;SDS011;3875;46.562;4.898;2023-04-23T12:34:05;9.63;;;7.73;;
7665;SDS011;3875;46.562;4.898;2023-04-23T12:36:32;9.47;;;8.07;;
7665;SDS011;3875;46.562;4.898;2023-04-23T12:41:43;10.67;;;7.10;;
7665;SDS011;3875;46.562;4.898;2023-04-23T12:44:09;11.30;;;7.97;;
7665;SDS011;3875;46.562;4.898;2023-04-23T12:46:35;11.03;;;8.03;;
7665;SDS011;3875;46.562;4.898;2023-04-23T12:49:01;10.57;;;7.20;;
7665;SDS011;3875;46.562;4.898;2023-04-23T12:51:26;8.53;;;6.57;;
7665;SDS011;3875;46.562;4.898;2023-04-23T12:53:52;8.77;;;6.90;;
7665;SDS011;3875;46.562;4.898;2023-04-23T12:56:19;8.67;;;7.03;;
7665;SDS011;3875;46.562;4.898;2023-04-23T12:58:45;11.23;;;6.87;;
7665;SDS011;3875;46.562;4.898;2023-04-23T13:01:10;8.87;;;6.63;;
7665;SDS011;3875;46.562;4.898;2023-04-23T13:03:38;9.70;;;6.93;;
7665;SDS011;3875;46.562;4.898;2023-04-23T13:06:04;8.77;;;6.87;;
7665;SDS011;3875;46.562;4.898;2023-04-23T13:08:32;9.73;;;7.10;;
7665;SDS011;3875;46.562;4.898;2023-04-23T13:10:58;9.60;;;7.40;;
7665;SDS011;3875;46.562;4.898;2023-04-23T13:13:24;10.90;;;7.47;;
7665;SDS011;3875;46.562;4.898;2023-04-23T13:15:51;8.50;;;7.00;;
7665;SDS011;3875;46.562;4.898;2023-04-23T13:18:17;9.83;;;7.40;;
7665;SDS011;3875;46.562;4.898;2023-04-23T13:20:43;13.00;;;8.13;;
7665;SDS011;3875;46.562;4.898;2023-04-23T13:23:09;10.80;;;7.57;;
7665;SDS011;3875;46.562;4.898;2023-04-23T13:25:36;13.93;;;8.17;;
7665;SDS011;3875;46.562;4.898;2023-04-23T13:28:01;9.77;;;6.43;;
7665;SDS011;3875;46.562;4.898;2023-04-23T13:30:27;3.87;;;3.00;;
7665;SDS011;3875;46.562;4.898;2023-04-23T13:32:53;8.57;;;3.70;;
7665;SDS011;3875;46.562;4.898;2023-04-23T13:35:20;9.03;;;3.43;;
7665;SDS011;3875;46.562;4.898;2023-04-23T13:37:46;4.67;;;2.20;;
7665;SDS011;3875;46.562;4.898;2023-04-23T13:40:11;5.30;;;2.30;;
7665;SDS011;3875;46.562;4.898;2023-04-23T13:42:37;5.70;;;2.57;;
7665;SDS011;3875;46.562;4.898;2023-04-23T13:45:03;5.97;;;2.40;;
7665;SDS011;3875;46.562;4.898;2023-04-23T13:47:30;8.03;;;2.87;;
7665;SDS011;3875;46.562;4.898;2023-04-23T13:49:57;4.07;;;2.27;;
7665;SDS011;3875;46.562;4.898;2023-04-23T13:52:24;3.17;;;1.83;;
7665;SDS011;3875;46.562;4.898;2023-04-23T13:54:49;8.27;;;1.77;;
7665;SDS011;3875;46.562;4.898;2023-04-23T13:57:16;2.10;;;1.67;;
7665;SDS011;3875;46.562;4.898;2023-04-23T13:59:42;4.13;;;2.23;;
7665;SDS011;3875;46.562;4.898;2023-04-23T14:02:08;4.60;;;1.80;;
7665;SDS011;3875;46.562;4.898;2023-04-23T14:04:33;2.33;;;1.70;;
7665;SDS011;3875;46.562;4.898;2023-04-23T14:06:59;5.17;;;2.00;;
7665;SDS011;3875;46.562;4.898;2023-04-23T14:09:25;4.50;;;1.90;;
7665;SDS011;3875;46.562;4.898;2023-04-23T14:11:50;1.83;;;1.30;;
7665;SDS011;3875;46.562;4.898;2023-04-23T14:14:16;6.33;;;1.40;;
7665;SDS011;3875;46.562;4.898;2023-04-23T14:16:42;3.87;;;1.40;;
7665;SDS011;3875;46.562;4.898;2023-04-23T14:19:08;2.13;;;1.23;;
7665;SDS011;3875;46.562;4.898;2023-04-23T14:21:33;2.97;;;1.10;;
7665;SDS011;3875;46.562;4.898;2023-04-23T14:26:40;1.90;;;1.00;;
7665;SDS011;3875;46.562;4.898;2023-04-23T14:29:09;3.67;;;1.03;;
7665;SDS011;3875;46.562;4.898;2023-04-23T14:31:42;1.10;;;1.00;;
7665;SDS011;3875;46.562;4.898;2023-04-23T14:34:07;1.03;;;1.03;;
7665;SDS011;3875;46.562;4.898;2023-04-23T14:36:33;8.07;;;1.40;;
7665;SDS011;3875;46.562;4.898;2023-04-23T14:38:59;4.13;;;1.30;;
7665;SDS011;3875;46.562;4.898;2023-04-23T14:41:30;3.93;;;1.60;;
7665;SDS011;3875;46.562;4.898;2023-04-23T14:43:57;2.30;;;1.17;;
7665;SDS011;3875;46.562;4.898;2023-04-23T14:46:26;1.10;;;1.00;;
7665;SDS011;3875;46.562;4.898;2023-04-23T14:48:52;2.43;;;1.20;;
7665;SDS011;3875;46.562;4.898;2023-04-23T14:51:18;1.47;;;1.37;;
7665;SDS011;3875;46.562;4.898;2023-04-23T14:53:44;1.53;;;1.10;;
7665;SDS011;3875;46.562;4.898;2023-04-23T14:56:10;1.10;;;1.00;;
7665;SDS011;3875;46.562;4.898;2023-04-23T14:58:35;1.60;;;1.20;;
7665;SDS011;3875;46.562;4.898;2023-04-23T15:01:01;1.80;;;1.20;;
7665;SDS011;3875;46.562;4.898;2023-04-23T15:03:27;5.47;;;1.67;;
7665;SDS011;3875;46.562;4.898;2023-04-23T15:05:53;1.40;;;1.30;;
7665;SDS011;3875;46.562;4.898;2023-04-23T15:08:19;3.30;;;1.57;;
7665;SDS011;3875;46.562;4.898;2023-04-23T15:10:45;2.53;;;1.50;;
7665;SDS011;3875;46.562;4.898;2023-04-23T15:18:13;2.20;;;1.73;;
7665;SDS011;3875;46.562;4.898;2023-04-23T15:20:40;3.70;;;1.70;;
7665;SDS011;3875;46.562;4.898;2023-04-23T15:23:06;4.50;;;1.80;;